createdAt,value
2022-07-25T00:00:55.193Z,2.80
2022-07-25T00:03:25.255Z,3.40
2022-07-25T00:05:57.096Z,5.23
2022-07-25T00:08:25.941Z,4.33
2022-07-25T00:10:54.548Z,4.00
2022-07-25T00:13:23.202Z,3.63
2022-07-25T00:15:51.734Z,4.47
2022-07-25T00:18:20.358Z,6.70
2022-07-25T00:20:50.273Z,6.67
2022-07-25T00:23:18.666Z,7.57
2022-07-25T00:25:47.264Z,6.83
2022-07-25T00:28:15.799Z,5.33
2022-07-25T00:30:44.312Z,6.23
2022-07-25T00:33:12.976Z,5.30
2022-07-25T00:35:41.646Z,5.77
2022-07-25T00:38:11.469Z,6.70
2022-07-25T00:40:40.018Z,7.23
2022-07-25T00:43:08.634Z,16.60
2022-07-25T00:45:37.015Z,6.90
2022-07-25T00:48:05.887Z,9.13
2022-07-25T00:50:34.502Z,7.50
2022-07-25T00:53:02.922Z,7.07
2022-07-25T00:55:33.890Z,11.33
2022-07-25T00:58:02.456Z,10.83
2022-07-25T01:00:30.863Z,11.77
2022-07-25T01:02:59.588Z,8.37
2022-07-25T01:05:28.313Z,11.30
2022-07-25T01:07:57.588Z,9.10
2022-07-25T01:10:26.128Z,15.57
2022-07-25T01:12:57.171Z,10.43
2022-07-25T01:15:25.900Z,12.80
2022-07-25T01:17:54.590Z,13.07
2022-07-25T01:20:25.162Z,10.30
2022-07-25T01:22:53.696Z,12.40
2022-07-25T01:25:22.708Z,14.03
2022-07-25T01:27:55.575Z,13.93
2022-07-25T01:30:25.373Z,13.07
2022-07-25T01:32:54.390Z,12.07
2022-07-25T01:35:24.120Z,14.77
2022-07-25T01:37:52.660Z,10.97
2022-07-25T01:40:21.220Z,17.03
2022-07-25T01:42:49.580Z,14.13
2022-07-25T01:45:18.122Z,10.23
2022-07-25T01:47:46.702Z,13.87
2022-07-25T01:50:15.051Z,14.10
2022-07-25T01:52:45.560Z,16.60
2022-07-25T01:55:14.166Z,13.27
2022-07-25T01:57:49.814Z,13.80
2022-07-25T02:00:19.577Z,16.83
2022-07-25T02:02:48.321Z,7.67
2022-07-25T02:05:17.161Z,12.43
2022-07-25T02:07:47.234Z,16.33
2022-07-25T02:10:15.747Z,13.50
2022-07-25T02:12:44.281Z,12.83
2022-07-25T02:15:13.318Z,15.73
2022-07-25T02:17:41.737Z,11.57
2022-07-25T02:20:10.882Z,16.47
2022-07-25T02:22:39.404Z,14.97
2022-07-25T02:25:09.749Z,15.30
2022-07-25T02:27:38.207Z,13.63
2022-07-25T02:30:07.228Z,15.27
2022-07-25T02:32:35.623Z,19.53
2022-07-25T02:35:04.336Z,18.20
2022-07-25T02:37:41.625Z,14.83
2022-07-25T02:40:12.293Z,19.67
2022-07-25T02:42:40.775Z,17.47
2022-07-25T02:45:09.927Z,22.03
2022-07-25T02:47:38.284Z,17.53
2022-07-25T02:50:07.190Z,12.90
2022-07-25T02:52:37.079Z,21.10
2022-07-25T02:55:09.575Z,10.70
2022-07-25T02:57:40.065Z,16.53
2022-07-25T03:00:09.186Z,13.27
2022-07-25T03:02:37.690Z,20.93
2022-07-25T03:05:07.623Z,12.77
2022-07-25T03:07:36.202Z,22.17
2022-07-25T03:10:08.903Z,14.77
2022-07-25T03:12:42.182Z,16.90
2022-07-25T03:15:11.484Z,15.40
2022-07-25T03:17:40.489Z,17.57
2022-07-25T03:20:10.080Z,11.67
2022-07-25T03:22:38.880Z,14.27
2022-07-25T03:25:15.830Z,15.67
2022-07-25T03:27:51.983Z,19.63
2022-07-25T03:30:20.651Z,15.33
2022-07-25T03:32:49.019Z,14.60
2022-07-25T03:35:17.622Z,16.17
2022-07-25T03:37:46.885Z,16.97
2022-07-25T03:40:15.924Z,17.37
2022-07-25T03:42:45.066Z,19.20
2022-07-25T03:45:14.949Z,11.50
2022-07-25T03:47:43.336Z,15.27
2022-07-25T03:50:12.183Z,13.70
2022-07-25T03:52:40.645Z,21.43
2022-07-25T03:55:10.104Z,14.07
2022-07-25T03:57:38.963Z,16.63
2022-07-25T04:00:09.352Z,12.03
2022-07-25T04:02:39.488Z,14.00
2022-07-25T04:05:08.465Z,12.33
2022-07-25T04:07:37.272Z,12.17
2022-07-25T04:10:07.357Z,11.27
2022-07-25T04:12:35.705Z,11.37
2022-07-25T04:15:04.768Z,14.17
2022-07-25T04:17:33.405Z,11.67
2022-07-25T04:20:03.261Z,11.23
2022-07-25T04:22:34.454Z,16.97
2022-07-25T04:25:02.887Z,13.33
2022-07-25T04:27:31.280Z,16.17
2022-07-25T04:30:00.387Z,12.33
2022-07-25T04:32:28.749Z,12.23
2022-07-25T04:34:57.175Z,15.10
2022-07-25T04:37:27.173Z,14.87
2022-07-25T04:39:55.566Z,14.53
2022-07-25T04:42:23.969Z,10.33
2022-07-25T04:44:52.838Z,8.67
2022-07-25T04:47:21.215Z,12.73
2022-07-25T04:49:49.650Z,13.43
2022-07-25T04:52:18.312Z,12.93
2022-07-25T04:54:48.110Z,12.80
2022-07-25T04:57:16.545Z,13.10
2022-07-25T04:59:45.565Z,13.37
2022-07-25T05:02:14.141Z,17.47
2022-07-25T05:04:45.396Z,12.73
2022-07-25T05:07:14.285Z,11.93
2022-07-25T05:09:42.858Z,9.73
2022-07-25T05:12:12.743Z,11.63
2022-07-25T05:14:41.366Z,7.07
2022-07-25T05:17:10.403Z,8.00
2022-07-25T05:19:38.962Z,12.03
2022-07-25T05:22:07.812Z,17.63
2022-07-25T05:24:36.285Z,8.20
2022-07-25T05:27:05.015Z,9.80
2022-07-25T05:29:34.931Z,10.07
2022-07-25T05:32:03.391Z,7.63
2022-07-25T05:34:31.946Z,10.90
2022-07-25T05:37:00.495Z,7.93
2022-07-25T05:39:28.863Z,7.30
2022-07-25T05:41:57.428Z,7.87
2022-07-25T05:44:25.991Z,8.83
2022-07-25T05:46:55.799Z,7.13
2022-07-25T05:49:24.465Z,5.33
2022-07-25T05:51:54.165Z,7.07
2022-07-25T05:54:22.527Z,4.50
2022-07-25T05:56:51.070Z,7.30
2022-07-25T05:59:20.688Z,6.37
2022-07-25T06:01:49.181Z,7.63
2022-07-25T06:04:21.934Z,4.97
2022-07-25T06:06:52.723Z,6.37
2022-07-25T06:09:21.769Z,5.30
2022-07-25T06:11:59.738Z,9.10
2022-07-25T06:14:30.844Z,5.17
2022-07-25T06:16:59.375Z,8.63
2022-07-25T06:19:29.213Z,4.27
2022-07-25T06:21:58.079Z,5.03
2022-07-25T06:24:26.498Z,5.10
2022-07-25T06:26:54.936Z,5.03
2022-07-25T06:29:23.725Z,6.00
2022-07-25T06:31:52.244Z,4.50
2022-07-25T06:34:20.737Z,5.27
2022-07-25T06:36:50.859Z,5.77
2022-07-25T06:39:19.228Z,5.50
2022-07-25T06:41:47.593Z,4.33
2022-07-25T06:44:16.335Z,5.60
2022-07-25T06:46:44.805Z,4.57
2022-07-25T06:49:13.295Z,6.87
2022-07-25T06:51:42.071Z,4.47
2022-07-25T06:54:13.813Z,4.97
2022-07-25T06:56:42.227Z,4.27
2022-07-25T06:59:11.004Z,5.03
2022-07-25T07:01:39.543Z,7.87
2022-07-25T07:04:08.327Z,4.87
2022-07-25T07:06:38.869Z,5.27
2022-07-25T07:09:07.999Z,6.40
2022-07-25T07:11:37.866Z,4.20
2022-07-25T07:14:07.163Z,4.47
2022-07-25T07:16:36.745Z,6.27
2022-07-25T07:19:05.660Z,4.37
2022-07-25T07:21:34.464Z,4.50
2022-07-25T07:24:02.934Z,4.70
2022-07-25T07:26:31.366Z,5.50
2022-07-25T07:29:02.994Z,6.93
2022-07-25T07:31:31.946Z,8.80
2022-07-25T07:34:00.592Z,4.60
2022-07-25T07:36:29.267Z,6.13
2022-07-25T07:38:57.644Z,11.47
2022-07-25T07:41:26.294Z,10.50
2022-07-25T07:43:56.736Z,8.80
2022-07-25T07:46:26.527Z,6.17
2022-07-25T07:48:55.256Z,7.80
2022-07-25T07:51:23.917Z,7.33
2022-07-25T07:54:09.910Z,7.40
2022-07-25T07:56:38.682Z,6.67
2022-07-25T07:59:07.539Z,6.73
2022-07-25T08:01:37.742Z,4.77
2022-07-25T08:04:06.693Z,7.63
2022-07-25T08:06:35.490Z,8.33
2022-07-25T08:09:04.373Z,7.37
2022-07-25T08:11:33.268Z,7.37
2022-07-25T08:14:01.919Z,4.73
2022-07-25T08:16:30.363Z,5.73
2022-07-25T08:19:00.388Z,7.07
2022-07-25T08:21:28.965Z,5.93
2022-07-25T08:23:57.432Z,6.97
2022-07-25T08:26:28.022Z,6.00
2022-07-25T08:29:17.459Z,5.93
2022-07-25T08:31:46.020Z,7.93
2022-07-25T08:34:15.980Z,6.47
2022-07-25T08:36:44.642Z,6.97
2022-07-25T08:39:14.075Z,5.43
2022-07-25T08:41:42.940Z,5.93
2022-07-25T08:44:11.649Z,5.80
2022-07-25T08:46:42.870Z,7.10
2022-07-25T08:49:11.620Z,7.13
2022-07-25T08:51:42.695Z,9.03
2022-07-25T08:54:12.297Z,7.53
2022-07-25T08:56:42.690Z,5.03
2022-07-25T08:59:11.078Z,6.30
2022-07-25T09:01:41.931Z,7.33
2022-07-25T09:04:11.307Z,9.73
2022-07-25T09:06:39.870Z,6.17
2022-07-25T09:09:09.700Z,8.63
2022-07-25T09:11:39.394Z,14.27
2022-07-25T09:14:10.470Z,8.27
2022-07-25T09:16:41.176Z,7.90
2022-07-25T09:19:10.778Z,8.33
2022-07-25T09:21:39.899Z,9.23
2022-07-25T09:24:14.177Z,8.83
2022-07-25T09:26:49.913Z,6.60
2022-07-25T09:29:19.124Z,8.03
2022-07-25T09:31:47.977Z,7.07
2022-07-25T09:34:20.912Z,6.07
2022-07-25T09:36:53.771Z,6.93
2022-07-25T09:39:34.270Z,4.40
2022-07-25T09:42:02.947Z,6.30
2022-07-25T09:44:31.472Z,4.33
2022-07-25T09:46:59.977Z,5.03
2022-07-25T09:49:39.105Z,6.43
2022-07-25T09:52:08.291Z,6.23
2022-07-25T09:54:38.223Z,7.83
2022-07-25T09:57:06.739Z,4.10
2022-07-25T09:59:35.582Z,6.80
2022-07-25T10:02:08.920Z,5.53
2022-07-25T10:04:44.940Z,5.20
2022-07-25T10:07:14.994Z,4.93
2022-07-25T10:09:45.838Z,7.80
2022-07-25T10:12:15.689Z,5.93
2022-07-25T10:14:44.109Z,5.23
2022-07-25T10:17:22.544Z,7.60
2022-07-25T10:19:54.280Z,5.20
2022-07-25T10:22:55.319Z,9.90
2022-07-25T10:25:25.987Z,13.23
2022-07-25T10:28:01.183Z,7.67
2022-07-25T10:30:30.615Z,9.83
2022-07-25T10:32:59.806Z,6.13
2022-07-25T10:35:28.628Z,7.50
2022-07-25T10:37:57.707Z,6.50
2022-07-25T10:40:31.683Z,8.37
2022-07-25T10:43:02.990Z,7.67
2022-07-25T10:45:44.897Z,7.67
2022-07-25T10:48:14.687Z,6.67
2022-07-25T10:50:55.890Z,8.13
2022-07-25T10:53:35.012Z,5.77
2022-07-25T10:56:10.202Z,5.10
2022-07-25T10:58:49.209Z,4.43
2022-07-25T11:01:21.851Z,7.18
2022-07-25T11:03:50.375Z,5.83
2022-07-25T11:06:19.230Z,6.95
2022-07-25T11:08:47.839Z,7.90
2022-07-25T11:11:17.627Z,6.63
2022-07-25T11:13:47.130Z,5.77
2022-07-25T11:16:15.705Z,7.53
2022-07-25T11:18:44.197Z,6.00
2022-07-25T11:21:12.910Z,5.43
2022-07-25T11:23:42.490Z,6.87
2022-07-25T11:26:11.694Z,5.93
2022-07-25T11:28:42.685Z,6.77
2022-07-25T11:31:11.398Z,7.23
2022-07-25T11:33:40.261Z,7.20
2022-07-25T11:36:09.359Z,6.17
2022-07-25T11:38:38.670Z,4.63
2022-07-25T11:41:07.383Z,7.93
2022-07-25T11:43:36.118Z,7.80
2022-07-25T11:46:07.914Z,5.13
2022-07-25T11:48:39.009Z,6.47
2022-07-25T11:51:16.227Z,4.73
2022-07-25T11:53:47.506Z,7.33
2022-07-25T11:56:40.708Z,7.77
2022-07-25T11:59:05.925Z,5.67
2022-07-25T12:01:40.223Z,7.70
2022-07-25T12:04:12.769Z,9.37
2022-07-25T12:06:41.349Z,9.07
2022-07-25T12:09:19.055Z,7.27
2022-07-25T12:11:48.951Z,5.93
2022-07-25T12:14:17.485Z,5.50
2022-07-25T12:16:47.308Z,4.63
2022-07-25T12:19:22.808Z,8.60
2022-07-25T12:21:51.234Z,4.37
2022-07-25T12:24:19.697Z,7.90
2022-07-25T12:26:48.547Z,6.60
2022-07-25T12:29:16.957Z,4.23
2022-07-25T12:31:46.684Z,6.77
2022-07-25T12:34:15.332Z,4.73
2022-07-25T12:36:45.124Z,6.57
2022-07-25T12:39:13.686Z,4.73
2022-07-25T12:41:43.118Z,7.00
2022-07-25T12:44:11.895Z,6.00
2022-07-25T12:46:47.219Z,9.53
2022-07-25T12:49:19.115Z,6.37
2022-07-25T12:51:47.595Z,6.83
2022-07-25T12:54:22.123Z,7.03
2022-07-25T12:56:51.823Z,5.13
2022-07-25T12:59:20.283Z,5.43
2022-07-25T13:01:48.797Z,4.63
2022-07-25T13:04:17.520Z,5.47
2022-07-25T13:06:47.351Z,6.63
2022-07-25T13:09:15.941Z,8.60
2022-07-25T13:11:44.566Z,6.00
2022-07-25T13:14:13.138Z,6.50
2022-07-25T13:16:41.619Z,5.60
2022-07-25T13:19:11.050Z,6.07
2022-07-25T13:21:39.843Z,4.63
2022-07-25T13:24:09.963Z,5.17
2022-07-25T13:26:39.115Z,5.27
2022-07-25T13:29:09.485Z,5.47
2022-07-25T13:31:38.327Z,4.00
2022-07-25T13:34:07.616Z,3.87
2022-07-25T13:36:36.874Z,4.37
2022-07-25T13:39:06.038Z,5.13
2022-07-25T13:41:36.223Z,4.13
2022-07-25T13:44:05.141Z,3.80
2022-07-25T13:46:33.799Z,6.53
2022-07-25T13:49:02.322Z,3.87
2022-07-25T13:51:30.995Z,3.87
2022-07-25T13:53:59.387Z,3.50
2022-07-25T13:56:28.055Z,3.93
2022-07-25T13:58:58.072Z,3.57
2022-07-25T14:01:28.740Z,3.70
2022-07-25T14:03:57.304Z,3.37
2022-07-25T14:06:25.927Z,4.53
2022-07-25T14:08:54.549Z,4.53
2022-07-25T14:11:26.024Z,4.43
2022-07-25T14:14:00.258Z,3.57
2022-07-25T14:16:29.186Z,3.83
2022-07-25T14:18:57.785Z,4.27
2022-07-25T14:21:26.576Z,3.47
2022-07-25T14:23:54.955Z,3.80
2022-07-25T14:26:23.378Z,5.00
2022-07-25T14:28:52.093Z,6.43
2022-07-25T14:31:22.369Z,4.20
2022-07-25T14:33:50.781Z,2.97
2022-07-25T14:36:19.413Z,3.70
2022-07-25T14:38:48.593Z,3.00
2022-07-25T14:41:17.218Z,3.20
2022-07-25T14:43:45.997Z,3.00
2022-07-25T14:46:14.446Z,7.03
2022-07-25T14:48:44.380Z,7.43
2022-07-25T14:51:13.012Z,2.70
2022-07-25T14:53:41.379Z,5.23
2022-07-25T14:56:09.857Z,3.10
2022-07-25T14:58:38.628Z,3.90
2022-07-25T15:01:07.279Z,5.47
2022-07-25T15:03:35.661Z,3.47
2022-07-25T15:06:07.306Z,2.90
2022-07-25T15:08:35.776Z,4.60
2022-07-25T15:11:04.151Z,3.60
2022-07-25T15:13:33.035Z,4.57
2022-07-25T15:16:02.354Z,2.90
2022-07-25T15:18:30.825Z,3.10
2022-07-25T15:20:59.447Z,2.50
2022-07-25T15:23:30.625Z,2.80
2022-07-25T15:26:02.428Z,2.30
2022-07-25T15:28:31.829Z,2.90
2022-07-25T15:31:01.488Z,2.83
2022-07-25T15:33:30.007Z,2.83
2022-07-25T15:35:58.605Z,2.60
2022-07-25T15:38:27.276Z,2.73
2022-07-25T15:40:57.246Z,2.83
2022-07-25T15:43:26.218Z,2.83
2022-07-25T15:45:55.048Z,2.70
2022-07-25T15:48:23.723Z,3.03
2022-07-25T15:50:52.646Z,4.27
2022-07-25T15:53:21.252Z,2.47
2022-07-25T15:55:49.627Z,2.37
2022-07-25T15:58:19.612Z,2.33
2022-07-25T16:00:48.344Z,4.13
2022-07-25T16:03:17.009Z,3.23
2022-07-25T16:05:45.753Z,4.33
2022-07-25T16:08:14.283Z,5.10
2022-07-25T16:10:42.910Z,2.00
2022-07-25T16:13:11.360Z,2.37
2022-07-25T16:15:41.868Z,4.43
2022-07-25T16:18:10.505Z,2.33
2022-07-25T16:20:39.044Z,2.43
2022-07-25T16:23:07.680Z,2.33
2022-07-25T16:25:36.333Z,2.13
2022-07-25T16:28:06.356Z,4.73
2022-07-25T16:30:35.980Z,4.10
2022-07-25T16:33:06.096Z,2.97
2022-07-25T16:35:34.506Z,4.03
2022-07-25T16:38:03.123Z,3.30
2022-07-25T16:40:32.205Z,3.13
2022-07-25T16:43:00.679Z,2.80
2022-07-25T16:45:29.870Z,3.30
2022-07-25T16:47:58.515Z,6.57
2022-07-25T16:50:28.277Z,2.17
2022-07-25T16:52:56.914Z,4.57
2022-07-25T16:55:25.568Z,3.30
2022-07-25T16:57:54.520Z,3.07
2022-07-25T17:00:23.338Z,2.83
2022-07-25T17:02:51.920Z,3.73
2022-07-25T17:05:20.470Z,2.70
2022-07-25T17:07:57.139Z,2.40
2022-07-25T17:10:27.802Z,7.23
2022-07-25T17:12:56.566Z,2.83
2022-07-25T17:15:25.079Z,3.87
2022-07-25T17:17:53.657Z,3.43
2022-07-25T17:20:22.163Z,2.87
2022-07-25T17:22:52.013Z,5.03
2022-07-25T17:25:20.662Z,2.90
2022-07-25T17:27:49.308Z,6.47
2022-07-25T17:30:17.690Z,3.47
2022-07-25T17:32:46.392Z,8.53
2022-07-25T17:35:14.877Z,3.10
2022-07-25T17:37:43.251Z,3.97
2022-07-25T17:40:13.689Z,2.83
2022-07-25T17:42:45.271Z,4.40
2022-07-25T17:45:14.325Z,5.53
2022-07-25T17:47:44.467Z,5.13
2022-07-25T17:50:13.256Z,5.47
2022-07-25T17:52:41.708Z,3.63
2022-07-25T17:55:12.202Z,3.87
2022-07-25T17:57:43.836Z,4.30
2022-07-25T18:00:12.863Z,3.87
2022-07-25T18:02:41.387Z,6.30
2022-07-25T18:05:10.227Z,6.20
2022-07-25T18:07:40.724Z,3.13
2022-07-25T18:10:09.626Z,5.23
2022-07-25T18:12:38.211Z,3.10
2022-07-25T18:15:09.471Z,5.37
2022-07-25T18:17:38.064Z,3.53
2022-07-25T18:20:06.927Z,4.00
2022-07-25T18:22:35.367Z,6.97
2022-07-25T18:25:03.954Z,6.37
2022-07-25T18:27:32.629Z,4.87
2022-07-25T18:30:01.067Z,6.37
2022-07-25T18:32:30.890Z,5.33
2022-07-25T18:34:59.516Z,4.57
2022-07-25T18:37:27.967Z,5.13
2022-07-25T18:39:56.493Z,4.03
2022-07-25T18:42:29.398Z,4.23
2022-07-25T18:44:58.772Z,3.77
2022-07-25T18:47:32.021Z,3.80
2022-07-25T18:50:02.478Z,6.03
2022-07-25T18:52:34.995Z,6.03
2022-07-25T18:55:04.666Z,4.07
2022-07-25T18:57:33.502Z,5.20
2022-07-25T19:00:03.427Z,5.23
2022-07-25T19:02:32.242Z,5.47
2022-07-25T19:05:02.250Z,4.47
2022-07-25T19:07:31.370Z,3.97
2022-07-25T19:09:59.881Z,5.23
2022-07-25T19:12:28.323Z,3.97
2022-07-25T19:14:57.103Z,6.00
2022-07-25T19:17:25.814Z,4.10
2022-07-25T19:19:54.221Z,3.27
2022-07-25T19:22:24.295Z,6.37
2022-07-25T19:24:52.970Z,6.17
2022-07-25T19:27:23.846Z,3.47
2022-07-25T19:29:52.311Z,8.87
2022-07-25T19:32:22.631Z,6.93
2022-07-25T19:34:51.125Z,6.00
2022-07-25T19:37:19.658Z,6.40
2022-07-25T19:39:50.074Z,7.37
2022-07-25T19:42:18.539Z,9.23
2022-07-25T19:44:46.967Z,6.53
2022-07-25T19:47:15.542Z,5.67
2022-07-25T19:49:43.941Z,5.53
2022-07-25T19:52:12.768Z,14.33
2022-07-25T19:54:41.417Z,9.07
2022-07-25T19:57:11.471Z,8.73
2022-07-25T19:59:39.881Z,8.30
2022-07-25T20:02:08.717Z,11.67
2022-07-25T20:04:37.466Z,7.57
2022-07-25T20:07:05.921Z,11.90
2022-07-25T20:09:35.023Z,10.03
2022-07-25T20:12:04.010Z,10.97
2022-07-25T20:14:33.863Z,11.00
2022-07-25T20:17:03.375Z,8.77
2022-07-25T20:19:31.944Z,8.13
2022-07-25T20:22:00.458Z,11.13
2022-07-25T20:24:29.352Z,5.87
2022-07-25T20:26:57.739Z,8.60
2022-07-25T20:29:26.217Z,5.17
2022-07-25T20:31:56.230Z,9.23
2022-07-25T20:34:24.724Z,9.23
2022-07-25T20:36:53.165Z,13.07
2022-07-25T20:39:21.759Z,8.33
2022-07-25T20:41:50.208Z,7.63
2022-07-25T20:44:18.624Z,18.17
2022-07-25T20:46:47.249Z,6.57
2022-07-25T20:49:17.065Z,12.77
2022-07-25T20:51:45.471Z,14.90
2022-07-25T20:54:14.835Z,9.80
2022-07-25T20:56:43.275Z,8.77
2022-07-25T20:59:11.929Z,9.83
2022-07-25T21:01:40.860Z,13.47
2022-07-25T21:04:09.321Z,11.47
2022-07-25T21:06:39.123Z,7.13
2022-07-25T21:09:09.121Z,10.73
2022-07-25T21:11:38.044Z,12.50
2022-07-25T21:14:06.774Z,9.23
2022-07-25T21:16:35.785Z,11.33
2022-07-25T21:19:04.459Z,11.77
2022-07-25T21:21:33.107Z,8.80
2022-07-25T21:24:03.097Z,8.60
2022-07-25T21:26:31.643Z,10.77
2022-07-25T21:29:00.153Z,11.83
2022-07-25T21:31:28.889Z,12.87
2022-07-25T21:33:57.495Z,14.77
2022-07-25T21:36:25.931Z,8.60
2022-07-25T21:38:54.460Z,15.33
2022-07-25T21:41:24.452Z,10.03
2022-07-25T21:43:52.992Z,11.63
2022-07-25T21:46:21.579Z,12.53
2022-07-25T21:49:08.028Z,11.87
2022-07-25T21:51:40.910Z,10.50
2022-07-25T21:54:09.677Z,12.53
2022-07-25T21:56:41.421Z,10.90
2022-07-25T21:59:10.523Z,10.37
2022-07-25T22:01:39.364Z,15.17
2022-07-25T22:04:08.141Z,12.63
2022-07-25T22:06:36.856Z,11.77
2022-07-25T22:09:05.672Z,9.90
2022-07-25T22:11:45.696Z,13.27
2022-07-25T22:14:17.204Z,8.00
2022-07-25T22:16:45.945Z,9.60
2022-07-25T22:19:14.717Z,9.57
2022-07-25T22:21:43.436Z,10.03
2022-07-25T22:24:12.360Z,7.40
2022-07-25T22:26:40.795Z,13.97
2022-07-25T22:29:09.839Z,11.37
2022-07-25T22:31:40.169Z,12.73
2022-07-25T22:34:08.695Z,10.97
2022-07-25T22:36:37.380Z,11.07
2022-07-25T22:39:06.358Z,11.27
2022-07-25T22:41:35.118Z,12.57
2022-07-25T22:44:03.772Z,13.93
2022-07-25T22:46:32.947Z,9.33
2022-07-25T22:49:03.273Z,8.93
2022-07-25T22:51:31.891Z,9.47
2022-07-25T22:54:01.045Z,13.03
2022-07-25T22:56:29.921Z,6.03
2022-07-25T22:58:58.937Z,12.73
2022-07-25T23:01:27.783Z,9.63
2022-07-25T23:03:56.204Z,8.73
2022-07-25T23:06:26.188Z,11.13
2022-07-25T23:08:56.065Z,8.27
2022-07-25T23:11:24.498Z,10.17
2022-07-25T23:13:53.145Z,14.63
2022-07-25T23:16:23.109Z,12.77
2022-07-25T23:18:51.927Z,14.47
2022-07-25T23:21:20.526Z,11.80
2022-07-25T23:23:50.573Z,8.53
2022-07-25T23:26:19.058Z,11.77
2022-07-25T23:28:47.745Z,8.17
2022-07-25T23:31:16.437Z,15.50
2022-07-25T23:33:44.896Z,6.93
2022-07-25T23:36:13.520Z,11.37
2022-07-25T23:38:42.050Z,9.63
2022-07-25T23:41:11.777Z,9.63
2022-07-25T23:43:56.934Z,9.43
2022-07-25T23:46:30.857Z,7.83
2022-07-25T23:49:00.363Z,11.87
2022-07-25T23:51:29.114Z,10.43
2022-07-25T23:53:57.565Z,9.47
2022-07-25T23:56:27.558Z,14.67
2022-07-25T23:58:56.165Z,13.57
